createdAt,value
2017-02-26T00:06:18.958Z,0
2017-02-26T00:16:18.950Z,0
2017-02-26T00:26:18.851Z,0
2017-02-26T00:36:18.944Z,0
2017-02-26T00:46:19.014Z,0
2017-02-26T00:56:18.957Z,0
2017-02-26T01:06:18.889Z,0
2017-02-26T01:16:18.964Z,0
2017-02-26T01:26:18.927Z,0
2017-02-26T01:36:19.007Z,0
2017-02-26T01:46:18.912Z,0
2017-02-26T01:56:18.918Z,0
2017-02-26T02:06:18.964Z,0
2017-02-26T02:16:19.021Z,0
2017-02-26T02:26:19.019Z,0
2017-02-26T02:36:19.064Z,0
2017-02-26T02:46:19.036Z,0
2017-02-26T02:56:18.972Z,0
2017-02-26T03:06:19.012Z,0
2017-02-26T03:16:19.015Z,0
2017-02-26T03:26:19.032Z,0
2017-02-26T03:36:19.423Z,0
2017-02-26T03:46:19.027Z,0
2017-02-26T03:56:19.015Z,0
2017-02-26T04:06:19.125Z,0
2017-02-26T04:16:19.049Z,0
2017-02-26T04:26:19.149Z,0
2017-02-26T04:36:19.067Z,0
2017-02-26T04:46:19.074Z,0
2017-02-26T04:56:19.170Z,0
2017-02-26T05:06:19.099Z,0
2017-02-26T05:16:19.077Z,0
2017-02-26T05:26:19.104Z,0
2017-02-26T05:36:19.143Z,0
2017-02-26T05:46:19.181Z,0
2017-02-26T05:56:19.152Z,0
2017-02-26T06:06:19.132Z,0
2017-02-26T06:16:19.166Z,0
2017-02-26T06:26:19.171Z,5
2017-02-26T06:36:19.176Z,5
2017-02-26T06:46:19.177Z,15
2017-02-26T06:56:19.162Z,25
2017-02-26T07:06:19.213Z,15
2017-02-26T07:16:19.227Z,30
2017-02-26T07:26:19.216Z,35
2017-02-26T07:36:19.256Z,40
2017-02-26T07:46:19.244Z,30
2017-02-26T07:56:19.239Z,80
2017-02-26T08:06:19.229Z,130
2017-02-26T08:16:19.321Z,100
2017-02-26T08:26:19.312Z,105
2017-02-26T08:36:19.304Z,140
2017-02-26T08:46:19.274Z,170
2017-02-26T08:56:19.383Z,205
2017-02-26T09:06:19.338Z,135
2017-02-26T09:16:19.431Z,160
2017-02-26T09:26:19.309Z,115
2017-02-26T09:36:19.325Z,125
2017-02-26T09:46:19.391Z,160
2017-02-26T09:56:19.445Z,150
2017-02-26T10:06:19.536Z,140
2017-02-26T10:16:19.492Z,285
2017-02-26T10:26:19.408Z,185
2017-02-26T10:36:19.384Z,185
2017-02-26T10:46:19.456Z,175
2017-02-26T10:56:19.402Z,220
2017-02-26T11:06:19.506Z,215
2017-02-26T11:16:19.547Z,205
2017-02-26T11:26:19.562Z,260
2017-02-26T11:36:19.610Z,255
2017-02-26T11:46:19.569Z,185
2017-02-26T11:56:19.475Z,145
2017-02-26T12:06:19.654Z,160
2017-02-26T12:16:19.517Z,255
2017-02-26T12:26:19.595Z,275
2017-02-26T12:36:19.608Z,265
2017-02-26T12:46:19.644Z,225
2017-02-26T12:56:19.565Z,215
2017-02-26T13:06:19.496Z,185
2017-02-26T13:16:19.534Z,200
2017-02-26T13:26:19.523Z,215
2017-02-26T13:36:19.558Z,250
2017-02-26T13:46:19.544Z,160
2017-02-26T13:56:19.606Z,180
2017-02-26T14:06:19.592Z,225
2017-02-26T14:16:19.560Z,200
2017-02-26T14:26:19.585Z,185
2017-02-26T14:36:19.677Z,150
2017-02-26T14:46:19.648Z,150
2017-02-26T14:56:19.644Z,155
2017-02-26T15:06:19.704Z,150
2017-02-26T15:16:19.756Z,100
2017-02-26T15:26:21.220Z,75
2017-02-26T15:36:19.681Z,80
2017-02-26T15:46:19.678Z,75
2017-02-26T15:56:19.691Z,30
2017-02-26T16:06:19.790Z,45
2017-02-26T16:16:19.741Z,35
2017-02-26T16:26:19.725Z,15
2017-02-26T16:36:20.340Z,10
2017-02-26T16:46:20.554Z,5
2017-02-26T16:56:23.264Z,0
2017-02-26T17:06:19.773Z,0
2017-02-26T17:16:29.627Z,0
2017-02-26T17:26:19.803Z,0
2017-02-26T17:36:19.809Z,0
2017-02-26T17:46:19.802Z,0
2017-02-26T17:56:19.803Z,0
2017-02-26T18:06:21.106Z,0
2017-02-26T18:16:22.611Z,0
2017-02-26T18:26:20.571Z,0
2017-02-26T18:36:19.905Z,0
2017-02-26T18:46:19.936Z,0
2017-02-26T18:56:19.949Z,0
2017-02-26T19:06:19.880Z,0
2017-02-26T19:16:19.910Z,0
2017-02-26T19:26:19.939Z,0
2017-02-26T19:36:20.625Z,0
2017-02-26T19:46:19.951Z,0
2017-02-26T19:56:19.924Z,0
2017-02-26T20:06:20.671Z,0
